createdAt,value
2017-10-16T00:00:31.358Z,6.43
2017-10-16T00:02:59.145Z,5.37
2017-10-16T00:05:26.701Z,6.13
2017-10-16T00:07:54.283Z,9.40
2017-10-16T00:10:22.447Z,4.80
2017-10-16T00:12:50.091Z,6.00
2017-10-16T00:15:17.666Z,4.60
2017-10-16T00:17:45.332Z,4.00
2017-10-16T00:20:12.910Z,4.90
2017-10-16T00:22:40.485Z,6.10
2017-10-16T00:25:08.316Z,6.77
2017-10-16T00:27:35.911Z,5.10
2017-10-16T00:30:03.505Z,4.43
2017-10-16T00:32:31.115Z,5.40
2017-10-16T00:34:58.726Z,5.57
2017-10-16T00:37:26.336Z,4.53
2017-10-16T00:39:53.963Z,4.70
2017-10-16T00:42:21.565Z,4.73
2017-10-16T00:44:49.235Z,6.50
2017-10-16T00:47:17.602Z,6.23
2017-10-16T00:49:45.195Z,5.83
2017-10-16T00:52:12.834Z,6.37
2017-10-16T00:54:40.543Z,6.67
2017-10-16T00:57:08.173Z,6.00
2017-10-16T00:59:35.809Z,5.47
2017-10-16T01:02:03.499Z,5.93
2017-10-16T01:04:31.210Z,6.53
2017-10-16T01:06:58.846Z,6.73
2017-10-16T01:09:26.613Z,6.57
2017-10-16T01:11:54.250Z,4.40
2017-10-16T01:14:21.834Z,5.53
2017-10-16T01:16:49.464Z,6.20
2017-10-16T01:19:17.088Z,5.97
2017-10-16T01:21:44.758Z,4.93
2017-10-16T01:24:12.426Z,5.53
2017-10-16T01:26:40.008Z,5.00
2017-10-16T01:29:07.848Z,4.53
2017-10-16T01:31:35.489Z,6.03
2017-10-16T01:34:03.085Z,4.60
2017-10-16T01:36:30.677Z,5.00
2017-10-16T01:38:58.364Z,5.30
2017-10-16T01:41:25.976Z,4.80
2017-10-16T01:43:53.578Z,3.90
2017-10-16T01:46:21.181Z,4.50
2017-10-16T01:48:48.856Z,3.63
2017-10-16T01:51:16.452Z,3.60
2017-10-16T01:53:44.043Z,4.90
2017-10-16T01:56:11.666Z,5.87
2017-10-16T01:58:39.266Z,4.80
2017-10-16T02:01:06.870Z,5.70
2017-10-16T02:03:34.462Z,3.97
2017-10-16T02:06:02.038Z,4.03
2017-10-16T02:08:30.010Z,4.77
2017-10-16T02:10:58.051Z,5.00
2017-10-16T02:13:26.125Z,7.50
2017-10-16T02:15:53.736Z,7.03
2017-10-16T02:18:21.298Z,7.30
2017-10-16T02:20:48.922Z,4.83
2017-10-16T02:23:16.499Z,6.40
2017-10-16T02:25:44.111Z,6.20
2017-10-16T02:28:11.748Z,5.93
2017-10-16T02:30:39.303Z,4.40
2017-10-16T02:33:07.329Z,4.20
2017-10-16T02:35:35.170Z,4.53
2017-10-16T02:38:04.693Z,6.50
2017-10-16T02:40:32.255Z,7.20
2017-10-16T02:42:59.884Z,7.07
2017-10-16T02:45:27.474Z,5.17
2017-10-16T02:47:55.085Z,6.33
2017-10-16T02:50:22.668Z,6.33
2017-10-16T02:52:50.278Z,4.13
2017-10-16T02:55:17.857Z,5.03
2017-10-16T02:57:45.435Z,5.80
2017-10-16T03:00:13.053Z,5.13
2017-10-16T03:02:40.662Z,4.17
2017-10-16T03:05:08.308Z,3.60
2017-10-16T03:07:35.914Z,4.00
2017-10-16T03:10:03.476Z,5.07
2017-10-16T03:12:31.113Z,6.30
2017-10-16T03:14:58.668Z,5.87
2017-10-16T03:17:26.297Z,6.20
2017-10-16T03:19:53.905Z,5.17
2017-10-16T03:22:21.557Z,4.30
2017-10-16T03:24:49.160Z,4.33
2017-10-16T03:27:16.778Z,4.10
2017-10-16T03:29:44.380Z,4.93
2017-10-16T03:32:11.966Z,4.27
2017-10-16T03:34:39.556Z,3.63
2017-10-16T03:37:07.173Z,4.40
2017-10-16T03:42:06.553Z,4.30
2017-10-16T03:44:34.179Z,5.73
2017-10-16T03:47:01.742Z,5.30
2017-10-16T03:49:29.570Z,6.90
2017-10-16T03:51:57.180Z,5.37
2017-10-16T03:54:24.786Z,5.87
2017-10-16T03:56:52.429Z,5.57
2017-10-16T03:59:20.240Z,5.60
2017-10-16T04:01:48.010Z,5.73
2017-10-16T04:04:15.596Z,4.33
2017-10-16T04:06:43.165Z,3.77
2017-10-16T04:09:11.032Z,4.67
2017-10-16T04:11:38.664Z,3.50
2017-10-16T04:14:06.286Z,3.20
2017-10-16T04:16:33.894Z,4.07
2017-10-16T04:19:01.512Z,3.90
2017-10-16T04:21:29.741Z,4.13
2017-10-16T04:23:57.468Z,3.53
2017-10-16T04:26:25.059Z,3.10
2017-10-16T04:28:52.604Z,4.17
2017-10-16T04:31:20.185Z,4.37
2017-10-16T04:33:47.794Z,4.53
2017-10-16T04:36:15.385Z,5.03
2017-10-16T04:38:42.945Z,3.83
2017-10-16T04:41:10.716Z,6.27
2017-10-16T04:43:38.445Z,4.23
2017-10-16T04:46:06.072Z,7.57
2017-10-16T04:48:34.038Z,7.30
2017-10-16T04:51:01.844Z,7.83
2017-10-16T04:53:29.407Z,6.37
2017-10-16T04:55:57.031Z,5.40
2017-10-16T04:58:24.633Z,5.70
2017-10-16T05:00:52.198Z,5.73
2017-10-16T05:03:19.803Z,5.67
2017-10-16T05:05:47.430Z,5.13
2017-10-16T05:08:15.026Z,5.20
2017-10-16T05:10:42.611Z,5.70
2017-10-16T05:13:10.366Z,3.70
2017-10-16T05:15:37.990Z,4.40
2017-10-16T05:18:05.777Z,4.27
2017-10-16T05:20:33.383Z,4.00
2017-10-16T05:23:00.962Z,5.23
2017-10-16T05:25:28.544Z,5.00
2017-10-16T05:27:56.215Z,4.70
2017-10-16T05:30:29.059Z,5.33
2017-10-16T05:32:56.642Z,3.30
2017-10-16T05:35:24.213Z,4.83
2017-10-16T05:37:51.809Z,4.63
2017-10-16T05:40:19.402Z,5.27
2017-10-16T05:42:47.030Z,3.93
2017-10-16T05:45:14.723Z,3.87
2017-10-16T05:47:42.345Z,3.07
2017-10-16T05:50:09.965Z,2.80
2017-10-16T05:52:37.621Z,3.20
2017-10-16T05:55:05.274Z,3.43
2017-10-16T05:57:33.797Z,4.17
2017-10-16T06:00:01.388Z,4.23
2017-10-16T06:02:29.119Z,7.30
2017-10-16T06:04:56.846Z,8.33
2017-10-16T06:07:24.493Z,7.60
2017-10-16T06:09:52.121Z,7.27
2017-10-16T06:12:19.735Z,4.23
2017-10-16T06:14:47.424Z,4.23
2017-10-16T06:17:16.745Z,4.00
2017-10-16T06:19:44.329Z,4.20
2017-10-16T06:22:11.976Z,4.30
2017-10-16T06:24:39.613Z,4.00
2017-10-16T06:27:07.314Z,4.30
2017-10-16T06:29:35.095Z,4.00
2017-10-16T06:32:02.734Z,4.07
2017-10-16T06:34:30.298Z,3.50
2017-10-16T06:36:57.957Z,3.97
2017-10-16T06:39:25.546Z,3.27
2017-10-16T06:41:53.143Z,4.07
2017-10-16T06:44:20.784Z,3.63
2017-10-16T06:46:48.398Z,2.97
2017-10-16T06:49:15.979Z,3.70
2017-10-16T06:51:43.641Z,2.70
2017-10-16T06:54:11.971Z,3.00
2017-10-16T06:56:41.114Z,3.40
2017-10-16T06:59:08.825Z,3.10
2017-10-16T07:01:36.427Z,3.27
2017-10-16T07:04:04.024Z,3.10
2017-10-16T07:06:31.659Z,3.20
2017-10-16T07:08:59.265Z,4.87
2017-10-16T07:11:26.846Z,3.97
2017-10-16T07:13:54.526Z,3.83
2017-10-16T07:16:22.181Z,3.70
2017-10-16T07:18:49.802Z,3.53
2017-10-16T07:21:17.444Z,2.93
2017-10-16T07:23:45.067Z,4.57
2017-10-16T07:26:12.694Z,6.10
2017-10-16T07:28:40.333Z,5.40
2017-10-16T07:31:07.966Z,4.57
2017-10-16T07:33:35.690Z,4.80
2017-10-16T07:36:04.666Z,5.20
2017-10-16T07:38:32.288Z,5.27
2017-10-16T07:40:59.921Z,4.97
2017-10-16T07:43:29.838Z,5.87
2017-10-16T07:45:57.458Z,5.20
2017-10-16T07:48:25.096Z,6.97
2017-10-16T07:50:52.769Z,8.50
2017-10-16T07:53:20.371Z,7.30
2017-10-16T07:55:47.996Z,9.00
2017-10-16T07:58:15.626Z,8.83
2017-10-16T08:00:43.238Z,8.90
2017-10-16T08:03:11.092Z,8.60
2017-10-16T08:05:39.085Z,9.57
2017-10-16T08:08:06.697Z,8.17
2017-10-16T08:10:34.336Z,9.43
2017-10-16T08:13:01.953Z,10.30
2017-10-16T08:15:29.561Z,9.17
2017-10-16T08:17:57.168Z,8.87
2017-10-16T08:20:24.766Z,7.37
2017-10-16T08:22:52.387Z,7.73
2017-10-16T08:25:20.135Z,8.80
2017-10-16T08:27:47.801Z,8.20
2017-10-16T08:30:15.415Z,8.23
2017-10-16T08:32:43.013Z,6.53
2017-10-16T08:35:11.608Z,6.00
2017-10-16T08:37:39.234Z,5.77
2017-10-16T08:40:06.882Z,6.70
2017-10-16T08:42:34.588Z,6.70
2017-10-16T08:45:02.276Z,6.67
2017-10-16T08:47:29.933Z,5.37
2017-10-16T08:49:57.621Z,5.30
2017-10-16T08:52:25.311Z,5.47
2017-10-16T08:54:52.997Z,4.67
2017-10-16T08:57:21.135Z,4.47
2017-10-16T08:59:48.842Z,4.13
2017-10-16T09:02:16.652Z,3.90
2017-10-16T09:04:44.327Z,3.80
2017-10-16T09:07:12.261Z,4.43
2017-10-16T09:09:39.850Z,4.17
2017-10-16T09:12:07.491Z,3.30
2017-10-16T09:14:35.130Z,3.13
2017-10-16T09:17:02.760Z,3.30
2017-10-16T09:19:30.369Z,2.47
2017-10-16T09:21:57.986Z,2.67
2017-10-16T09:24:25.556Z,3.10
2017-10-16T09:26:53.164Z,3.17
2017-10-16T09:29:20.824Z,2.90
2017-10-16T09:31:48.610Z,3.40
2017-10-16T09:34:16.307Z,3.13
2017-10-16T09:36:43.909Z,2.80
2017-10-16T09:39:11.882Z,3.00
2017-10-16T09:41:39.466Z,2.53
2017-10-16T09:44:07.157Z,2.47
2017-10-16T09:46:34.762Z,2.77
2017-10-16T09:49:02.422Z,2.20
2017-10-16T09:51:31.237Z,2.90
2017-10-16T09:53:58.818Z,2.20
2017-10-16T09:56:27.597Z,2.80
2017-10-16T09:58:55.173Z,2.10
2017-10-16T10:01:22.718Z,2.70
2017-10-16T10:03:50.314Z,2.43
2017-10-16T10:06:17.935Z,2.50
2017-10-16T10:08:47.071Z,2.20
2017-10-16T10:11:14.956Z,2.10
2017-10-16T10:13:44.456Z,1.90
2017-10-16T10:16:12.139Z,2.13
2017-10-16T10:18:39.714Z,2.40
2017-10-16T10:21:07.281Z,2.50
2017-10-16T10:23:34.866Z,2.10
2017-10-16T10:26:02.997Z,2.23
2017-10-16T10:28:30.657Z,2.80
2017-10-16T10:30:58.441Z,2.90
2017-10-16T10:33:26.110Z,3.10
2017-10-16T10:35:53.698Z,2.40
2017-10-16T10:38:21.369Z,2.83
2017-10-16T10:40:50.673Z,2.87
2017-10-16T10:43:18.479Z,3.67
2017-10-16T10:45:46.123Z,2.00
2017-10-16T10:48:13.827Z,2.60
2017-10-16T10:50:41.846Z,2.50
2017-10-16T10:53:09.452Z,2.50
2017-10-16T10:55:37.024Z,2.60
2017-10-16T10:58:05.155Z,2.30
2017-10-16T11:00:33.109Z,2.70
2017-10-16T11:03:00.650Z,2.80
2017-10-16T11:05:28.225Z,3.63
2017-10-16T11:07:55.822Z,3.43
2017-10-16T11:10:23.411Z,3.67
2017-10-16T11:12:50.987Z,4.00
2017-10-16T11:15:19.357Z,2.77
2017-10-16T11:17:46.969Z,3.00
2017-10-16T11:20:14.526Z,3.53
2017-10-16T11:22:42.119Z,4.50
2017-10-16T11:25:09.965Z,4.07
2017-10-16T11:27:37.553Z,3.87
2017-10-16T11:30:05.185Z,3.40
2017-10-16T11:32:32.770Z,3.03
2017-10-16T11:35:00.354Z,3.30
2017-10-16T11:37:28.011Z,3.30
2017-10-16T11:39:55.730Z,3.40
2017-10-16T11:42:24.053Z,2.90
2017-10-16T11:44:51.643Z,3.23
2017-10-16T11:47:19.248Z,3.20
2017-10-16T11:49:46.858Z,3.10
2017-10-16T11:52:14.463Z,4.10
2017-10-16T11:54:42.075Z,3.27
2017-10-16T11:57:10.039Z,3.30
2017-10-16T11:59:37.707Z,2.90
2017-10-16T12:02:05.968Z,3.30
2017-10-16T12:04:34.136Z,3.50
2017-10-16T12:07:01.698Z,3.80
2017-10-16T12:09:31.570Z,3.17
2017-10-16T12:11:59.216Z,3.00
2017-10-16T12:14:27.583Z,3.10
2017-10-16T12:16:55.150Z,4.30
2017-10-16T12:19:23.816Z,3.80
2017-10-16T12:21:51.394Z,3.57
2017-10-16T12:24:18.982Z,3.20
2017-10-16T12:26:46.601Z,3.17
2017-10-16T12:29:14.177Z,3.30
2017-10-16T12:31:41.787Z,3.03
2017-10-16T12:34:09.475Z,3.30
2017-10-16T12:36:37.077Z,3.60
2017-10-16T12:39:04.796Z,3.73
2017-10-16T12:41:32.469Z,3.50
2017-10-16T12:44:00.091Z,3.73
2017-10-16T12:46:27.736Z,3.70
2017-10-16T12:48:55.398Z,3.30
2017-10-16T12:51:23.195Z,3.03
2017-10-16T12:53:51.072Z,3.83
2017-10-16T12:56:18.799Z,3.27
2017-10-16T12:58:46.368Z,3.50
2017-10-16T13:01:13.970Z,3.83
2017-10-16T13:03:41.612Z,3.33
2017-10-16T13:06:09.293Z,3.00
2017-10-16T13:08:36.919Z,3.87
2017-10-16T13:11:05.038Z,4.33
2017-10-16T13:13:32.838Z,3.30
2017-10-16T13:16:00.417Z,4.17
2017-10-16T13:18:28.053Z,3.70
2017-10-16T13:20:55.648Z,3.80
2017-10-16T13:23:23.237Z,3.60
2017-10-16T13:25:50.938Z,3.50
2017-10-16T13:28:18.740Z,4.43
2017-10-16T13:30:46.311Z,4.80
2017-10-16T13:33:13.957Z,4.10
2017-10-16T13:35:41.709Z,6.53
2017-10-16T13:38:09.487Z,3.80
2017-10-16T13:40:37.082Z,4.40
2017-10-16T13:43:04.783Z,4.90
2017-10-16T13:45:32.378Z,4.03
2017-10-16T13:47:59.958Z,4.13
2017-10-16T13:50:28.016Z,3.73
2017-10-16T13:52:55.629Z,4.37
2017-10-16T13:55:23.815Z,4.90
2017-10-16T13:57:51.434Z,4.53
2017-10-16T14:00:18.990Z,4.37
2017-10-16T14:02:46.564Z,6.20
2017-10-16T14:05:14.386Z,4.20
2017-10-16T14:07:42.609Z,4.00
2017-10-16T14:10:10.221Z,4.03
2017-10-16T14:12:37.839Z,3.60
2017-10-16T14:15:05.443Z,3.83
2017-10-16T14:17:33.003Z,3.70
2017-10-16T14:20:01.974Z,3.57
2017-10-16T14:22:29.696Z,3.13
2017-10-16T14:24:57.331Z,4.37
2017-10-16T14:27:24.939Z,3.97
2017-10-16T14:29:53.623Z,4.20
2017-10-16T14:32:21.365Z,4.90
2017-10-16T14:34:48.950Z,3.90
2017-10-16T14:37:16.527Z,4.10
2017-10-16T14:39:44.115Z,4.50
2017-10-16T14:42:11.737Z,4.10
2017-10-16T14:44:39.402Z,3.67
2017-10-16T14:47:09.405Z,4.37
2017-10-16T14:49:37.058Z,5.13
2017-10-16T14:52:04.652Z,5.37
2017-10-16T14:54:32.277Z,4.33
2017-10-16T14:57:04.393Z,5.50
2017-10-16T14:59:32.367Z,4.73
2017-10-16T15:01:59.952Z,4.60
2017-10-16T15:04:27.623Z,4.93
2017-10-16T15:06:55.130Z,4.67
2017-10-16T15:12:13.253Z,4.40
2017-10-16T15:14:40.851Z,5.90
2017-10-16T15:17:08.636Z,5.10
2017-10-16T15:19:46.072Z,5.97
2017-10-16T15:22:13.697Z,5.50
2017-10-16T15:24:41.280Z,5.07
2017-10-16T15:27:09.132Z,4.77
2017-10-16T15:29:36.809Z,4.43
2017-10-16T15:32:04.373Z,5.00
2017-10-16T15:34:31.970Z,4.97
2017-10-16T15:36:59.587Z,4.77
2017-10-16T15:39:27.334Z,4.50
2017-10-16T15:41:54.971Z,4.20
2017-10-16T15:44:22.883Z,5.33
2017-10-16T15:46:50.547Z,4.70
2017-10-16T15:49:18.139Z,5.60
2017-10-16T15:51:45.778Z,5.33
2017-10-16T15:54:13.374Z,6.30
2017-10-16T15:56:40.970Z,7.93
2017-10-16T15:59:08.642Z,6.80
2017-10-16T16:01:36.395Z,5.63
2017-10-16T16:04:04.023Z,5.47
2017-10-16T16:06:31.615Z,6.03
2017-10-16T16:08:59.361Z,5.30
2017-10-16T16:11:27.347Z,5.33
2017-10-16T16:13:54.968Z,4.30
2017-10-16T16:16:22.693Z,5.50
2017-10-16T16:18:50.515Z,5.40
2017-10-16T16:21:18.115Z,4.80
2017-10-16T16:23:45.761Z,6.10
2017-10-16T16:26:13.484Z,6.60
2017-10-16T16:28:41.135Z,5.37
2017-10-16T16:31:08.871Z,5.37
2017-10-16T16:33:36.517Z,5.80
2017-10-16T16:36:04.361Z,5.17
2017-10-16T16:38:32.046Z,5.30
2017-10-16T16:40:59.740Z,5.37
2017-10-16T16:43:27.305Z,6.20
2017-10-16T16:45:54.980Z,5.27
2017-10-16T16:48:23.689Z,5.90
2017-10-16T16:50:51.359Z,5.43
2017-10-16T16:53:19.140Z,6.20
2017-10-16T16:55:47.213Z,6.27
2017-10-16T16:58:14.945Z,6.30
2017-10-16T17:00:42.576Z,8.07
2017-10-16T17:03:10.487Z,9.03
2017-10-16T17:05:38.068Z,5.70
2017-10-16T17:08:05.675Z,6.57
2017-10-16T17:10:33.289Z,6.63
2017-10-16T17:13:00.957Z,5.93
2017-10-16T17:15:28.616Z,4.50
2017-10-16T17:17:56.831Z,5.97
2017-10-16T17:20:24.488Z,6.50
2017-10-16T17:22:52.142Z,5.80
2017-10-16T17:25:25.757Z,6.60
2017-10-16T17:27:53.751Z,5.57
2017-10-16T17:30:21.543Z,6.37
2017-10-16T17:32:49.968Z,6.10
2017-10-16T17:35:17.694Z,6.07
2017-10-16T17:37:45.279Z,6.60
2017-10-16T17:40:13.199Z,7.30
2017-10-16T17:42:41.203Z,6.23
2017-10-16T17:45:10.292Z,6.50
2017-10-16T17:47:39.118Z,7.63
2017-10-16T17:50:08.222Z,6.87
2017-10-16T17:52:36.517Z,6.47
2017-10-16T17:55:04.159Z,5.90
2017-10-16T17:57:31.838Z,6.97
2017-10-16T17:59:59.423Z,6.90
2017-10-16T18:02:27.022Z,6.20
2017-10-16T18:04:54.626Z,5.00
2017-10-16T18:07:22.689Z,6.50
2017-10-16T18:09:50.269Z,7.30
2017-10-16T18:12:17.896Z,6.70
2017-10-16T18:14:45.476Z,7.03
2017-10-16T18:17:14.727Z,6.80
2017-10-16T18:19:42.329Z,6.60
2017-10-16T18:22:11.749Z,7.47
2017-10-16T18:24:39.397Z,6.57
2017-10-16T18:27:08.778Z,6.97
2017-10-16T18:29:36.391Z,6.13
2017-10-16T18:32:03.953Z,6.53
2017-10-16T18:34:31.586Z,6.17
2017-10-16T18:37:04.460Z,6.97
2017-10-16T18:39:32.226Z,7.63
2017-10-16T18:42:00.355Z,7.47
2017-10-16T18:44:28.033Z,6.80
2017-10-16T18:46:55.689Z,6.57
2017-10-16T18:49:24.103Z,7.07
2017-10-16T18:51:51.736Z,5.47
2017-10-16T18:54:19.340Z,5.60
2017-10-16T18:56:46.926Z,6.67
2017-10-16T18:59:14.614Z,7.27
2017-10-16T19:01:42.245Z,7.30
2017-10-16T19:04:09.800Z,5.73
2017-10-16T19:06:37.380Z,6.10
2017-10-16T19:09:05.453Z,6.33
2017-10-16T19:11:33.056Z,6.30
2017-10-16T19:14:00.650Z,6.83
2017-10-16T19:16:28.316Z,7.20
2017-10-16T19:18:55.890Z,5.93
2017-10-16T19:21:23.652Z,6.20
2017-10-16T19:23:51.247Z,5.93
2017-10-16T19:26:18.816Z,6.00
2017-10-16T19:28:46.448Z,5.73
2017-10-16T19:31:14.049Z,5.53
2017-10-16T19:33:41.648Z,6.70
2017-10-16T19:36:09.322Z,6.70
2017-10-16T19:38:36.958Z,6.10
2017-10-16T19:41:04.634Z,7.30
2017-10-16T19:43:33.998Z,8.27
2017-10-16T19:46:01.565Z,6.00
2017-10-16T19:48:29.210Z,6.83
2017-10-16T19:50:56.787Z,6.40
2017-10-16T19:53:24.342Z,6.10
2017-10-16T19:55:51.950Z,5.93
2017-10-16T19:58:20.574Z,6.80
2017-10-16T20:00:49.146Z,7.30
2017-10-16T20:03:17.668Z,6.40
2017-10-16T20:05:45.232Z,6.90
2017-10-16T20:08:24.782Z,7.47
2017-10-16T20:10:52.352Z,7.03
2017-10-16T20:13:20.020Z,6.43
2017-10-16T20:15:47.730Z,6.77
2017-10-16T20:18:15.488Z,7.10
2017-10-16T20:20:43.102Z,6.50
2017-10-16T20:23:11.055Z,6.50
2017-10-16T20:25:38.646Z,6.07
2017-10-16T20:28:06.631Z,5.60
2017-10-16T20:30:34.210Z,6.10
2017-10-16T20:33:01.880Z,6.20
2017-10-16T20:35:29.609Z,5.60
2017-10-16T20:37:57.206Z,5.67
2017-10-16T20:40:24.782Z,6.33
2017-10-16T20:42:52.407Z,5.70
2017-10-16T20:45:20.838Z,6.20
2017-10-16T20:47:48.631Z,5.67
2017-10-16T20:50:16.264Z,5.50
2017-10-16T20:52:43.868Z,5.17
2017-10-16T20:55:12.368Z,6.20
2017-10-16T20:57:40.006Z,6.77
2017-10-16T21:00:07.663Z,6.43
2017-10-16T21:02:35.283Z,5.90
2017-10-16T21:05:02.887Z,6.23
2017-10-16T21:07:30.519Z,6.87
2017-10-16T21:09:58.094Z,6.33
2017-10-16T21:12:25.691Z,5.93
2017-10-16T21:14:53.341Z,6.60
2017-10-16T21:17:20.977Z,5.60
2017-10-16T21:19:48.574Z,5.97
2017-10-16T21:22:16.152Z,5.40
2017-10-16T21:24:43.719Z,6.80
2017-10-16T21:27:11.604Z,6.63
2017-10-16T21:29:39.650Z,5.70
2017-10-16T21:32:07.422Z,5.00
2017-10-16T21:34:35.007Z,6.00
2017-10-16T21:37:02.659Z,7.07
2017-10-16T21:39:30.306Z,9.17
2017-10-16T21:41:57.915Z,19.90
2017-10-16T21:44:25.570Z,13.60
2017-10-16T21:46:53.149Z,5.93
2017-10-16T21:49:20.729Z,8.20
2017-10-16T21:51:48.330Z,8.30
2017-10-16T21:54:15.963Z,8.33
2017-10-16T21:56:43.552Z,6.13
2017-10-16T21:59:11.353Z,6.70
2017-10-16T22:01:38.929Z,5.53
2017-10-16T22:04:06.549Z,6.57
2017-10-16T22:06:34.152Z,5.70
2017-10-16T22:09:01.725Z,6.13
2017-10-16T22:11:31.276Z,6.63
2017-10-16T22:13:58.984Z,6.07
2017-10-16T22:16:26.549Z,6.53
2017-10-16T22:18:54.310Z,6.20
2017-10-16T22:21:21.917Z,6.17
2017-10-16T22:23:49.522Z,6.07
2017-10-16T22:26:17.102Z,4.83
2017-10-16T22:28:44.687Z,6.43
2017-10-16T22:31:12.633Z,5.77
2017-10-16T22:33:40.239Z,5.30
2017-10-16T22:36:07.810Z,6.50
2017-10-16T22:38:35.404Z,5.87
2017-10-16T22:41:05.645Z,8.90
2017-10-16T22:43:33.311Z,7.23
2017-10-16T22:46:00.919Z,7.33
2017-10-16T22:48:44.187Z,5.67
2017-10-16T22:51:11.909Z,6.40
2017-10-16T22:53:39.499Z,6.10
2017-10-16T22:56:07.188Z,7.17
2017-10-16T22:58:34.771Z,6.23
2017-10-16T23:01:02.429Z,6.30
2017-10-16T23:03:30.075Z,5.23
2017-10-16T23:05:57.693Z,5.77
2017-10-16T23:08:25.295Z,6.37
2017-10-16T23:10:52.933Z,5.87
2017-10-16T23:13:20.486Z,7.10
2017-10-16T23:15:48.087Z,6.17
2017-10-16T23:18:15.695Z,5.80
2017-10-16T23:20:43.313Z,6.20
2017-10-16T23:23:10.924Z,6.00
2017-10-16T23:25:38.519Z,5.87
2017-10-16T23:28:06.086Z,5.80
2017-10-16T23:30:33.658Z,5.40
2017-10-16T23:33:01.218Z,5.70
2017-10-16T23:35:28.823Z,5.57
2017-10-16T23:37:56.438Z,6.20
2017-10-16T23:40:24.018Z,6.43
2017-10-16T23:42:51.626Z,7.93
2017-10-16T23:45:19.241Z,6.43
2017-10-16T23:47:46.836Z,5.80
2017-10-16T23:50:14.530Z,5.27
2017-10-16T23:52:42.115Z,5.00
2017-10-16T23:55:09.761Z,5.50
2017-10-16T23:57:37.379Z,5.77
